sensor_id;sensor_type;location;lat;lon;timestamp;pressure;altitude;pressure_sealevel;temperature;humidity
55490;BME280;44029;52.956;4.772;2023-12-04T00:00:59;101235.00;;;6.82;100.00
55490;BME280;44029;52.956;4.772;2023-12-04T00:03:24;101226.84;;;6.75;100.00
55490;BME280;44029;52.956;4.772;2023-12-04T00:05:50;101229.50;;;6.88;100.00
55490;BME280;44029;52.956;4.772;2023-12-04T00:08:15;101223.97;;;7.08;100.00
55490;BME280;44029;52.956;4.772;2023-12-04T00:10:40;101218.59;;;6.95;100.00
55490;BME280;44029;52.956;4.772;2023-12-04T00:13:06;101208.69;;;6.62;100.00
55490;BME280;44029;52.956;4.772;2023-12-04T00:15:31;101211.78;;;6.72;100.00
55490;BME280;44029;52.956;4.772;2023-12-04T00:17:56;101198.84;;;6.61;100.00
55490;BME280;44029;52.956;4.772;2023-12-04T00:20:22;101202.31;;;6.82;100.00
55490;BME280;44029;52.956;4.772;2023-12-04T00:22:47;101197.41;;;6.52;100.00
55490;BME280;44029;52.956;4.772;2023-12-04T00:25:13;101194.28;;;7.00;100.00
55490;BME280;44029;52.956;4.772;2023-12-04T00:27:38;101196.28;;;6.80;100.00
55490;BME280;44029;52.956;4.772;2023-12-04T00:30:04;101187.47;;;6.77;100.00
55490;BME280;44029;52.956;4.772;2023-12-04T00:32:31;101186.59;;;6.84;100.00
55490;BME280;44029;52.956;4.772;2023-12-04T00:34:56;101188.22;;;6.98;100.00
55490;BME280;44029;52.956;4.772;2023-12-04T00:37:22;101184.97;;;7.14;100.00
55490;BME280;44029;52.956;4.772;2023-12-04T00:39:47;101183.97;;;7.09;100.00
55490;BME280;44029;52.956;4.772;2023-12-04T00:42:13;101183.13;;;6.63;100.00
55490;BME280;44029;52.956;4.772;2023-12-04T00:44:38;101165.47;;;6.79;100.00
55490;BME280;44029;52.956;4.772;2023-12-04T00:47:03;101164.84;;;7.15;100.00
55490;BME280;44029;52.956;4.772;2023-12-04T00:49:29;101170.56;;;7.07;100.00
55490;BME280;44029;52.956;4.772;2023-12-04T00:51:54;101170.88;;;7.24;100.00
55490;BME280;44029;52.956;4.772;2023-12-04T00:54:19;101160.84;;;7.18;100.00
55490;BME280;44029;52.956;4.772;2023-12-04T00:56:45;101157.28;;;7.18;100.00
55490;BME280;44029;52.956;4.772;2023-12-04T00:59:10;101152.13;;;7.03;100.00
55490;BME280;44029;52.956;4.772;2023-12-04T01:01:36;101144.78;;;7.03;100.00
55490;BME280;44029;52.956;4.772;2023-12-04T01:04:03;101141.22;;;6.71;100.00
55490;BME280;44029;52.956;4.772;2023-12-04T01:06:28;101140.41;;;7.02;100.00
55490;BME280;44029;52.956;4.772;2023-12-04T01:08:54;101146.81;;;7.46;100.00
55490;BME280;44029;52.956;4.772;2023-12-04T01:11:20;101151.41;;;7.46;100.00
55490;BME280;44029;52.956;4.772;2023-12-04T01:13:45;101144.81;;;7.35;100.00
55490;BME280;44029;52.956;4.772;2023-12-04T01:16:11;101149.19;;;7.36;100.00
55490;BME280;44029;52.956;4.772;2023-12-04T01:18:37;101138.56;;;7.28;100.00
55490;BME280;44029;52.956;4.772;2023-12-04T01:21:02;101132.31;;;7.21;100.00
55490;BME280;44029;52.956;4.772;2023-12-04T01:23:28;101137.06;;;7.00;100.00
55490;BME280;44029;52.956;4.772;2023-12-04T01:25:53;101139.59;;;6.56;100.00
55490;BME280;44029;52.956;4.772;2023-12-04T01:28:18;101132.13;;;6.90;100.00
55490;BME280;44029;52.956;4.772;2023-12-04T01:30:44;101136.16;;;7.38;100.00
55490;BME280;44029;52.956;4.772;2023-12-04T01:33:09;101136.88;;;7.27;100.00
55490;BME280;44029;52.956;4.772;2023-12-04T01:35:35;101126.56;;;7.35;100.00
55490;BME280;44029;52.956;4.772;2023-12-04T01:38:01;101126.94;;;6.75;100.00
55490;BME280;44029;52.956;4.772;2023-12-04T01:40:26;101129.53;;;7.02;100.00
55490;BME280;44029;52.956;4.772;2023-12-04T01:42:52;101134.16;;;6.95;100.00
55490;BME280;44029;52.956;4.772;2023-12-04T01:45:17;101121.28;;;6.77;100.00
55490;BME280;44029;52.956;4.772;2023-12-04T01:47:44;101124.63;;;6.79;100.00
55490;BME280;44029;52.956;4.772;2023-12-04T01:50:11;101110.13;;;7.17;100.00
55490;BME280;44029;52.956;4.772;2023-12-04T01:52:37;101104.53;;;6.73;100.00
55490;BME280;44029;52.956;4.772;2023-12-04T01:55:04;101109.41;;;7.28;100.00
55490;BME280;44029;52.956;4.772;2023-12-04T01:57:31;101114.50;;;6.54;100.00
55490;BME280;44029;52.956;4.772;2023-12-04T01:59:56;101109.63;;;7.02;100.00
55490;BME280;44029;52.956;4.772;2023-12-04T02:02:22;101101.25;;;6.65;100.00
55490;BME280;44029;52.956;4.772;2023-12-04T02:04:47;101114.91;;;6.90;100.00
55490;BME280;44029;52.956;4.772;2023-12-04T02:07:13;101099.78;;;7.01;100.00
55490;BME280;44029;52.956;4.772;2023-12-04T02:09:38;101095.81;;;6.65;100.00
55490;BME280;44029;52.956;4.772;2023-12-04T02:12:04;101100.38;;;6.71;100.00
55490;BME280;44029;52.956;4.772;2023-12-04T02:14:29;101102.38;;;7.14;100.00
55490;BME280;44029;52.956;4.772;2023-12-04T02:16:55;101091.38;;;7.52;100.00
55490;BME280;44029;52.956;4.772;2023-12-04T02:19:21;101083.59;;;7.31;100.00
55490;BME280;44029;52.956;4.772;2023-12-04T02:21:47;101071.22;;;7.35;100.00
55490;BME280;44029;52.956;4.772;2023-12-04T02:24:12;101080.88;;;7.06;100.00
55490;BME280;44029;52.956;4.772;2023-12-04T02:26:44;101072.41;;;7.83;100.00
55490;BME280;44029;52.956;4.772;2023-12-04T02:29:14;101088.00;;;7.57;100.00
55490;BME280;44029;52.956;4.772;2023-12-04T02:31:42;101080.72;;;7.69;100.00
55490;BME280;44029;52.956;4.772;2023-12-04T02:34:08;101083.50;;;7.19;100.00
55490;BME280;44029;52.956;4.772;2023-12-04T02:36:36;101072.03;;;7.35;100.00
55490;BME280;44029;52.956;4.772;2023-12-04T02:39:03;101069.22;;;6.67;100.00
55490;BME280;44029;52.956;4.772;2023-12-04T02:41:29;101060.59;;;7.27;100.00
55490;BME280;44029;52.956;4.772;2023-12-04T02:43:55;101058.41;;;6.85;100.00
55490;BME280;44029;52.956;4.772;2023-12-04T02:46:20;101058.00;;;6.82;100.00
55490;BME280;44029;52.956;4.772;2023-12-04T02:48:46;101052.75;;;6.87;100.00
55490;BME280;44029;52.956;4.772;2023-12-04T02:51:11;101045.53;;;6.67;100.00
55490;BME280;44029;52.956;4.772;2023-12-04T02:53:37;101047.03;;;6.63;100.00
55490;BME280;44029;52.956;4.772;2023-12-04T02:56:02;101048.13;;;6.55;100.00
55490;BME280;44029;52.956;4.772;2023-12-04T02:58:27;101041.84;;;6.87;100.00
55490;BME280;44029;52.956;4.772;2023-12-04T03:00:53;101033.09;;;7.03;100.00
55490;BME280;44029;52.956;4.772;2023-12-04T03:03:18;101021.44;;;7.21;100.00
55490;BME280;44029;52.956;4.772;2023-12-04T03:05:43;101026.66;;;6.97;100.00
55490;BME280;44029;52.956;4.772;2023-12-04T03:08:09;101032.84;;;7.11;100.00
55490;BME280;44029;52.956;4.772;2023-12-04T03:10:34;101020.53;;;7.09;100.00
55490;BME280;44029;52.956;4.772;2023-12-04T03:12:59;101013.72;;;7.18;100.00
55490;BME280;44029;52.956;4.772;2023-12-04T03:15:25;101011.38;;;6.39;100.00
55490;BME280;44029;52.956;4.772;2023-12-04T03:17:53;101013.84;;;6.48;100.00
55490;BME280;44029;52.956;4.772;2023-12-04T03:20:19;101010.47;;;6.46;100.00
55490;BME280;44029;52.956;4.772;2023-12-04T03:22:44;100998.28;;;6.55;100.00
55490;BME280;44029;52.956;4.772;2023-12-04T03:25:09;100994.31;;;6.83;100.00
55490;BME280;44029;52.956;4.772;2023-12-04T03:27:35;100997.72;;;6.78;100.00
55490;BME280;44029;52.956;4.772;2023-12-04T03:30:00;100999.00;;;7.44;100.00
55490;BME280;44029;52.956;4.772;2023-12-04T03:32:26;101003.34;;;7.27;100.00
55490;BME280;44029;52.956;4.772;2023-12-04T03:34:51;100994.09;;;6.84;100.00
55490;BME280;44029;52.956;4.772;2023-12-04T03:37:16;100996.47;;;6.99;100.00
55490;BME280;44029;52.956;4.772;2023-12-04T03:39:42;100983.97;;;7.16;100.00
55490;BME280;44029;52.956;4.772;2023-12-04T03:42:07;100980.78;;;7.20;100.00
55490;BME280;44029;52.956;4.772;2023-12-04T03:44:32;100971.78;;;7.19;100.00
55490;BME280;44029;52.956;4.772;2023-12-04T03:46:58;100971.75;;;6.75;100.00
55490;BME280;44029;52.956;4.772;2023-12-04T03:49:23;100976.53;;;6.80;100.00
55490;BME280;44029;52.956;4.772;2023-12-04T03:51:48;100971.66;;;7.69;100.00
55490;BME280;44029;52.956;4.772;2023-12-04T03:54:14;100974.38;;;6.89;100.00
55490;BME280;44029;52.956;4.772;2023-12-04T03:56:39;100965.81;;;6.85;100.00
55490;BME280;44029;52.956;4.772;2023-12-04T03:59:05;100967.06;;;6.83;100.00
55490;BME280;44029;52.956;4.772;2023-12-04T04:01:30;100963.31;;;7.46;100.00
55490;BME280;44029;52.956;4.772;2023-12-04T04:03:56;100964.53;;;6.88;100.00
55490;BME280;44029;52.956;4.772;2023-12-04T04:06:21;100967.72;;;7.03;100.00
55490;BME280;44029;52.956;4.772;2023-12-04T04:08:46;100965.09;;;6.96;100.00
55490;BME280;44029;52.956;4.772;2023-12-04T04:11:12;100967.25;;;6.63;100.00
55490;BME280;44029;52.956;4.772;2023-12-04T04:13:37;100969.53;;;6.91;100.00
55490;BME280;44029;52.956;4.772;2023-12-04T04:16:03;100965.00;;;7.03;100.00
55490;BME280;44029;52.956;4.772;2023-12-04T04:18:29;100959.28;;;7.11;100.00
55490;BME280;44029;52.956;4.772;2023-12-04T04:20:54;100958.09;;;7.07;100.00
55490;BME280;44029;52.956;4.772;2023-12-04T04:23:19;100953.72;;;6.81;100.00
55490;BME280;44029;52.956;4.772;2023-12-04T04:25:45;100953.41;;;7.14;100.00
55490;BME280;44029;52.956;4.772;2023-12-04T04:28:10;100939.91;;;7.20;100.00
55490;BME280;44029;52.956;4.772;2023-12-04T04:30:35;100948.34;;;7.18;100.00
55490;BME280;44029;52.956;4.772;2023-12-04T04:33:00;100949.66;;;6.90;100.00
55490;BME280;44029;52.956;4.772;2023-12-04T04:35:26;100938.13;;;7.32;100.00
55490;BME280;44029;52.956;4.772;2023-12-04T04:37:52;100938.06;;;7.57;100.00
55490;BME280;44029;52.956;4.772;2023-12-04T04:40:17;100937.94;;;7.08;100.00
55490;BME280;44029;52.956;4.772;2023-12-04T04:42:43;100931.63;;;7.14;100.00
55490;BME280;44029;52.956;4.772;2023-12-04T04:45:08;100934.25;;;7.40;100.00
55490;BME280;44029;52.956;4.772;2023-12-04T04:47:34;100933.44;;;7.39;100.00
55490;BME280;44029;52.956;4.772;2023-12-04T04:49:59;100937.72;;;6.85;100.00
55490;BME280;44029;52.956;4.772;2023-12-04T04:52:24;100942.63;;;7.01;100.00
55490;BME280;44029;52.956;4.772;2023-12-04T04:54:50;100923.44;;;7.33;100.00
55490;BME280;44029;52.956;4.772;2023-12-04T04:57:15;100927.75;;;7.22;100.00
55490;BME280;44029;52.956;4.772;2023-12-04T04:59:40;100922.81;;;7.31;100.00
55490;BME280;44029;52.956;4.772;2023-12-04T05:02:06;100923.44;;;7.14;100.00
55490;BME280;44029;52.956;4.772;2023-12-04T05:04:31;100923.94;;;7.05;100.00
55490;BME280;44029;52.956;4.772;2023-12-04T05:06:57;100922.09;;;7.24;100.00
55490;BME280;44029;52.956;4.772;2023-12-04T05:09:22;100924.47;;;7.13;100.00
55490;BME280;44029;52.956;4.772;2023-12-04T05:11:47;100927.31;;;6.82;100.00
55490;BME280;44029;52.956;4.772;2023-12-04T05:14:13;100906.59;;;6.99;100.00
55490;BME280;44029;52.956;4.772;2023-12-04T05:16:38;100905.56;;;7.37;100.00
55490;BME280;44029;52.956;4.772;2023-12-04T05:19:03;100904.97;;;7.16;100.00
55490;BME280;44029;52.956;4.772;2023-12-04T05:21:29;100909.06;;;7.44;100.00
55490;BME280;44029;52.956;4.772;2023-12-04T05:23:54;100911.09;;;7.49;100.00
55490;BME280;44029;52.956;4.772;2023-12-04T05:26:19;100897.63;;;7.54;100.00
55490;BME280;44029;52.956;4.772;2023-12-04T05:28:45;100904.56;;;6.94;100.00
55490;BME280;44029;52.956;4.772;2023-12-04T05:31:11;100907.13;;;6.89;100.00
55490;BME280;44029;52.956;4.772;2023-12-04T05:33:36;100899.81;;;7.08;100.00
55490;BME280;44029;52.956;4.772;2023-12-04T05:36:02;100898.03;;;6.95;100.00
55490;BME280;44029;52.956;4.772;2023-12-04T05:38:27;100896.44;;;6.88;100.00
55490;BME280;44029;52.956;4.772;2023-12-04T05:40:52;100893.53;;;7.08;100.00
55490;BME280;44029;52.956;4.772;2023-12-04T05:43:19;100890.00;;;6.82;100.00
55490;BME280;44029;52.956;4.772;2023-12-04T05:45:45;100881.03;;;7.00;100.00
55490;BME280;44029;52.956;4.772;2023-12-04T05:48:10;100884.22;;;7.34;100.00
55490;BME280;44029;52.956;4.772;2023-12-04T05:50:35;100884.19;;;6.78;100.00
55490;BME280;44029;52.956;4.772;2023-12-04T05:53:01;100879.75;;;6.59;100.00
55490;BME280;44029;52.956;4.772;2023-12-04T05:55:26;100868.78;;;7.09;100.00
55490;BME280;44029;52.956;4.772;2023-12-04T05:57:52;100866.28;;;6.64;100.00
55490;BME280;44029;52.956;4.772;2023-12-04T06:00:17;100866.06;;;6.91;100.00
55490;BME280;44029;52.956;4.772;2023-12-04T06:02:43;100861.78;;;6.76;100.00
55490;BME280;44029;52.956;4.772;2023-12-04T06:05:09;100857.88;;;6.91;100.00
55490;BME280;44029;52.956;4.772;2023-12-04T06:07:35;100852.66;;;7.08;100.00
55490;BME280;44029;52.956;4.772;2023-12-04T06:10:01;100850.91;;;6.95;100.00
55490;BME280;44029;52.956;4.772;2023-12-04T06:12:26;100859.59;;;6.67;100.00
55490;BME280;44029;52.956;4.772;2023-12-04T06:14:52;100856.38;;;6.95;100.00
55490;BME280;44029;52.956;4.772;2023-12-04T06:17:17;100848.69;;;6.67;100.00
55490;BME280;44029;52.956;4.772;2023-12-04T06:19:43;100854.00;;;6.80;100.00
55490;BME280;44029;52.956;4.772;2023-12-04T06:22:08;100848.47;;;6.68;100.00
55490;BME280;44029;52.956;4.772;2023-12-04T06:24:34;100852.31;;;6.35;100.00
55490;BME280;44029;52.956;4.772;2023-12-04T06:26:59;100848.75;;;6.60;100.00
55490;BME280;44029;52.956;4.772;2023-12-04T06:29:25;100839.66;;;7.10;100.00
55490;BME280;44029;52.956;4.772;2023-12-04T06:31:51;100835.31;;;7.39;100.00
55490;BME280;44029;52.956;4.772;2023-12-04T06:34:17;100830.50;;;7.23;100.00
55490;BME280;44029;52.956;4.772;2023-12-04T06:36:42;100834.22;;;6.66;100.00
55490;BME280;44029;52.956;4.772;2023-12-04T06:39:10;100833.38;;;7.09;100.00
55490;BME280;44029;52.956;4.772;2023-12-04T06:41:37;100819.44;;;7.18;100.00
55490;BME280;44029;52.956;4.772;2023-12-04T06:44:03;100833.44;;;7.21;100.00
55490;BME280;44029;52.956;4.772;2023-12-04T06:46:30;100827.41;;;7.01;100.00
55490;BME280;44029;52.956;4.772;2023-12-04T06:48:59;100826.25;;;6.90;100.00
55490;BME280;44029;52.956;4.772;2023-12-04T06:51:24;100821.66;;;6.90;100.00
55490;BME280;44029;52.956;4.772;2023-12-04T06:53:50;100810.66;;;6.97;100.00
55490;BME280;44029;52.956;4.772;2023-12-04T06:56:15;100816.56;;;6.75;100.00
55490;BME280;44029;52.956;4.772;2023-12-04T06:58:41;100813.63;;;6.95;100.00
55490;BME280;44029;52.956;4.772;2023-12-04T07:01:06;100815.34;;;6.90;100.00
55490;BME280;44029;52.956;4.772;2023-12-04T07:03:32;100818.41;;;7.00;100.00
55490;BME280;44029;52.956;4.772;2023-12-04T07:05:57;100812.78;;;6.95;100.00
55490;BME280;44029;52.956;4.772;2023-12-04T07:08:22;100819.00;;;6.84;100.00
55490;BME280;44029;52.956;4.772;2023-12-04T07:10:48;100808.56;;;6.99;100.00
55490;BME280;44029;52.956;4.772;2023-12-04T07:13:14;100806.34;;;6.71;100.00
55490;BME280;44029;52.956;4.772;2023-12-04T07:15:39;100800.47;;;6.74;100.00
55490;BME280;44029;52.956;4.772;2023-12-04T07:18:04;100806.31;;;6.52;100.00
55490;BME280;44029;52.956;4.772;2023-12-04T07:20:30;100803.47;;;6.66;100.00
55490;BME280;44029;52.956;4.772;2023-12-04T07:22:55;100810.50;;;6.73;100.00
55490;BME280;44029;52.956;4.772;2023-12-04T07:25:23;100811.38;;;6.24;100.00
55490;BME280;44029;52.956;4.772;2023-12-04T07:27:48;100809.47;;;6.74;100.00
55490;BME280;44029;52.956;4.772;2023-12-04T07:30:14;100807.31;;;6.58;100.00
55490;BME280;44029;52.956;4.772;2023-12-04T07:32:39;100806.75;;;6.74;100.00
55490;BME280;44029;52.956;4.772;2023-12-04T07:35:05;100795.25;;;6.91;100.00
55490;BME280;44029;52.956;4.772;2023-12-04T07:37:31;100800.09;;;6.70;100.00
55490;BME280;44029;52.956;4.772;2023-12-04T07:39:57;100795.41;;;7.14;100.00
55490;BME280;44029;52.956;4.772;2023-12-04T07:42:22;100799.47;;;7.24;100.00
55490;BME280;44029;52.956;4.772;2023-12-04T07:44:48;100792.22;;;6.81;100.00
55490;BME280;44029;52.956;4.772;2023-12-04T07:47:14;100793.56;;;6.90;100.00
55490;BME280;44029;52.956;4.772;2023-12-04T07:49:41;100798.84;;;6.66;100.00
55490;BME280;44029;52.956;4.772;2023-12-04T07:52:06;100787.66;;;7.30;100.00
55490;BME280;44029;52.956;4.772;2023-12-04T07:54:32;100788.28;;;6.95;100.00
55490;BME280;44029;52.956;4.772;2023-12-04T07:56:57;100791.00;;;6.95;100.00
55490;BME280;44029;52.956;4.772;2023-12-04T07:59:23;100788.06;;;6.96;100.00
55490;BME280;44029;52.956;4.772;2023-12-04T08:01:48;100794.19;;;7.71;100.00
55490;BME280;44029;52.956;4.772;2023-12-04T08:04:13;100788.41;;;7.37;100.00
55490;BME280;44029;52.956;4.772;2023-12-04T08:06:39;100792.72;;;7.26;100.00
55490;BME280;44029;52.956;4.772;2023-12-04T08:09:04;100794.94;;;6.81;100.00
55490;BME280;44029;52.956;4.772;2023-12-04T08:11:34;100791.38;;;7.47;100.00
55490;BME280;44029;52.956;4.772;2023-12-04T08:13:59;100795.66;;;7.25;100.00
55490;BME280;44029;52.956;4.772;2023-12-04T08:16:26;100793.41;;;7.03;100.00
55490;BME280;44029;52.956;4.772;2023-12-04T08:18:54;100788.56;;;7.24;100.00
55490;BME280;44029;52.956;4.772;2023-12-04T08:21:19;100787.09;;;7.40;100.00
55490;BME280;44029;52.956;4.772;2023-12-04T08:23:44;100792.41;;;7.16;100.00
55490;BME280;44029;52.956;4.772;2023-12-04T08:26:10;100789.66;;;6.86;100.00
55490;BME280;44029;52.956;4.772;2023-12-04T08:28:35;100776.41;;;6.89;100.00
55490;BME280;44029;52.956;4.772;2023-12-04T08:31:03;100779.47;;;7.60;100.00
55490;BME280;44029;52.956;4.772;2023-12-04T08:33:28;100770.97;;;7.38;100.00
55490;BME280;44029;52.956;4.772;2023-12-04T08:35:54;100771.22;;;7.79;100.00
55490;BME280;44029;52.956;4.772;2023-12-04T08:38:19;100773.38;;;7.46;100.00
55490;BME280;44029;52.956;4.772;2023-12-04T08:40:45;100765.66;;;7.43;100.00
55490;BME280;44029;52.956;4.772;2023-12-04T08:43:10;100769.81;;;7.46;100.00
55490;BME280;44029;52.956;4.772;2023-12-04T08:45:35;100766.47;;;7.44;100.00
55490;BME280;44029;52.956;4.772;2023-12-04T08:48:01;100754.53;;;7.99;100.00
55490;BME280;44029;52.956;4.772;2023-12-04T08:50:26;100764.91;;;7.66;100.00
55490;BME280;44029;52.956;4.772;2023-12-04T08:52:52;100752.84;;;7.44;100.00
55490;BME280;44029;52.956;4.772;2023-12-04T08:55:17;100761.06;;;7.25;100.00
55490;BME280;44029;52.956;4.772;2023-12-04T08:57:44;100750.63;;;7.41;100.00
55490;BME280;44029;52.956;4.772;2023-12-04T09:00:09;100749.91;;;7.99;100.00
55490;BME280;44029;52.956;4.772;2023-12-04T09:02:35;100760.66;;;7.40;100.00
55490;BME280;44029;52.956;4.772;2023-12-04T09:05:01;100754.47;;;7.63;100.00
55490;BME280;44029;52.956;4.772;2023-12-04T09:07:27;100750.19;;;7.55;100.00
55490;BME280;44029;52.956;4.772;2023-12-04T09:09:52;100755.50;;;7.50;100.00
55490;BME280;44029;52.956;4.772;2023-12-04T09:12:18;100754.50;;;7.75;100.00
55490;BME280;44029;52.956;4.772;2023-12-04T09:14:43;100755.78;;;7.72;100.00
55490;BME280;44029;52.956;4.772;2023-12-04T09:17:08;100752.28;;;7.96;100.00
55490;BME280;44029;52.956;4.772;2023-12-04T09:19:34;100757.91;;;7.28;100.00
55490;BME280;44029;52.956;4.772;2023-12-04T09:21:59;100749.03;;;7.75;100.00
55490;BME280;44029;52.956;4.772;2023-12-04T09:24:24;100758.38;;;7.55;100.00
55490;BME280;44029;52.956;4.772;2023-12-04T09:26:50;100759.94;;;7.33;100.00
55490;BME280;44029;52.956;4.772;2023-12-04T09:29:15;100757.50;;;7.85;100.00
55490;BME280;44029;52.956;4.772;2023-12-04T09:31:41;100751.56;;;7.88;100.00
55490;BME280;44029;52.956;4.772;2023-12-04T09:34:07;100751.97;;;8.51;100.00
55490;BME280;44029;52.956;4.772;2023-12-04T09:36:33;100759.91;;;8.52;100.00
55490;BME280;44029;52.956;4.772;2023-12-04T09:38:59;100761.91;;;8.10;100.00
55490;BME280;44029;52.956;4.772;2023-12-04T09:41:24;100751.34;;;8.13;100.00
55490;BME280;44029;52.956;4.772;2023-12-04T09:43:50;100760.72;;;8.41;100.00
55490;BME280;44029;52.956;4.772;2023-12-04T09:46:17;100760.44;;;7.84;100.00
55490;BME280;44029;52.956;4.772;2023-12-04T09:48:43;100763.78;;;7.98;100.00
55490;BME280;44029;52.956;4.772;2023-12-04T09:51:09;100752.66;;;8.23;100.00
55490;BME280;44029;52.956;4.772;2023-12-04T09:53:35;100752.63;;;7.87;100.00
55490;BME280;44029;52.956;4.772;2023-12-04T09:56:03;100753.44;;;7.88;100.00
55490;BME280;44029;52.956;4.772;2023-12-04T09:58:29;100750.69;;;8.54;100.00
55490;BME280;44029;52.956;4.772;2023-12-04T10:00:56;100752.16;;;7.90;100.00
55490;BME280;44029;52.956;4.772;2023-12-04T10:03:22;100750.53;;;8.37;100.00
55490;BME280;44029;52.956;4.772;2023-12-04T10:05:48;100737.81;;;8.07;100.00
55490;BME280;44029;52.956;4.772;2023-12-04T10:08:14;100744.81;;;8.03;100.00
55490;BME280;44029;52.956;4.772;2023-12-04T10:10:39;100729.28;;;8.27;100.00
55490;BME280;44029;52.956;4.772;2023-12-04T10:13:05;100735.03;;;7.71;100.00
55490;BME280;44029;52.956;4.772;2023-12-04T10:15:31;100723.22;;;7.89;100.00
55490;BME280;44029;52.956;4.772;2023-12-04T10:17:57;100722.75;;;8.04;100.00
55490;BME280;44029;52.956;4.772;2023-12-04T10:20:23;100725.47;;;8.16;100.00
55490;BME280;44029;52.956;4.772;2023-12-04T10:25:21;100715.28;;;8.35;100.00
55490;BME280;44029;52.956;4.772;2023-12-04T10:27:47;100714.31;;;8.53;100.00
55490;BME280;44029;52.956;4.772;2023-12-04T10:30:28;100712.88;;;8.62;100.00
55490;BME280;44029;52.956;4.772;2023-12-04T10:32:56;100713.16;;;8.37;100.00
55490;BME280;44029;52.956;4.772;2023-12-04T10:35:26;100701.66;;;8.00;100.00
55490;BME280;44029;52.956;4.772;2023-12-04T10:37:54;100697.22;;;8.69;100.00
55490;BME280;44029;52.956;4.772;2023-12-04T10:40:25;100696.38;;;9.09;100.00
55490;BME280;44029;52.956;4.772;2023-12-04T10:42:51;100695.97;;;8.13;100.00
55490;BME280;44029;52.956;4.772;2023-12-04T10:45:16;100684.22;;;8.48;100.00
55490;BME280;44029;52.956;4.772;2023-12-04T10:47:43;100673.09;;;8.78;100.00
55490;BME280;44029;52.956;4.772;2023-12-04T10:50:10;100679.53;;;8.60;100.00
55490;BME280;44029;52.956;4.772;2023-12-04T10:52:38;100667.44;;;8.32;100.00
55490;BME280;44029;52.956;4.772;2023-12-04T10:55:05;100659.31;;;8.09;100.00
55490;BME280;44029;52.956;4.772;2023-12-04T10:57:37;100663.56;;;8.17;100.00
55490;BME280;44029;52.956;4.772;2023-12-04T11:00:04;100657.75;;;8.13;100.00
55490;BME280;44029;52.956;4.772;2023-12-04T11:02:33;100664.78;;;8.73;100.00
55490;BME280;44029;52.956;4.772;2023-12-04T11:05:07;100663.31;;;8.54;100.00
55490;BME280;44029;52.956;4.772;2023-12-04T11:07:57;100660.94;;;8.45;100.00
55490;BME280;44029;52.956;4.772;2023-12-04T11:10:26;100655.94;;;8.30;100.00
55490;BME280;44029;52.956;4.772;2023-12-04T11:13:02;100656.53;;;8.56;100.00
55490;BME280;44029;52.956;4.772;2023-12-04T11:15:39;100643.63;;;9.09;100.00
55490;BME280;44029;52.956;4.772;2023-12-04T11:18:06;100645.88;;;8.43;100.00
55490;BME280;44029;52.956;4.772;2023-12-04T11:20:37;100652.94;;;8.67;100.00
55490;BME280;44029;52.956;4.772;2023-12-04T11:23:05;100637.34;;;8.16;100.00
55490;BME280;44029;52.956;4.772;2023-12-04T11:25:32;100643.00;;;8.38;100.00
55490;BME280;44029;52.956;4.772;2023-12-04T11:28:00;100632.06;;;8.90;100.00
55490;BME280;44029;52.956;4.772;2023-12-04T11:30:27;100639.97;;;8.75;100.00
55490;BME280;44029;52.956;4.772;2023-12-04T11:32:53;100629.63;;;9.05;100.00
55490;BME280;44029;52.956;4.772;2023-12-04T11:35:21;100634.91;;;8.55;100.00
55490;BME280;44029;52.956;4.772;2023-12-04T11:37:47;100621.47;;;8.94;100.00
55490;BME280;44029;52.956;4.772;2023-12-04T11:40:15;100618.69;;;8.77;100.00
55490;BME280;44029;52.956;4.772;2023-12-04T11:42:41;100618.81;;;8.82;100.00
55490;BME280;44029;52.956;4.772;2023-12-04T11:45:07;100607.56;;;8.95;100.00
55490;BME280;44029;52.956;4.772;2023-12-04T11:47:59;100604.88;;;9.29;100.00
55490;BME280;44029;52.956;4.772;2023-12-04T11:50:25;100602.94;;;8.67;100.00
55490;BME280;44029;52.956;4.772;2023-12-04T11:52:51;100602.38;;;8.53;100.00
55490;BME280;44029;52.956;4.772;2023-12-04T11:55:18;100603.19;;;8.65;100.00
55490;BME280;44029;52.956;4.772;2023-12-04T11:57:45;100589.56;;;8.82;100.00
55490;BME280;44029;52.956;4.772;2023-12-04T12:00:11;100587.63;;;8.95;100.00
55490;BME280;44029;52.956;4.772;2023-12-04T12:02:38;100587.28;;;8.22;100.00
55490;BME280;44029;52.956;4.772;2023-12-04T12:05:05;100583.59;;;8.28;100.00
55490;BME280;44029;52.956;4.772;2023-12-04T12:07:31;100585.84;;;8.31;100.00
55490;BME280;44029;52.956;4.772;2023-12-04T12:09:57;100579.84;;;8.58;100.00
55490;BME280;44029;52.956;4.772;2023-12-04T12:12:22;100581.94;;;8.15;100.00
55490;BME280;44029;52.956;4.772;2023-12-04T12:14:48;100579.16;;;8.39;100.00
55490;BME280;44029;52.956;4.772;2023-12-04T12:17:13;100572.84;;;8.38;100.00
55490;BME280;44029;52.956;4.772;2023-12-04T12:19:39;100573.44;;;8.52;100.00
55490;BME280;44029;52.956;4.772;2023-12-04T12:22:04;100557.72;;;8.88;100.00
55490;BME280;44029;52.956;4.772;2023-12-04T12:24:30;100566.72;;;8.31;100.00
55490;BME280;44029;52.956;4.772;2023-12-04T12:26:55;100564.31;;;8.35;100.00
55490;BME280;44029;52.956;4.772;2023-12-04T12:29:21;100556.81;;;8.13;100.00
55490;BME280;44029;52.956;4.772;2023-12-04T12:31:46;100564.47;;;8.68;100.00
55490;BME280;44029;52.956;4.772;2023-12-04T12:34:11;100557.75;;;8.59;100.00
55490;BME280;44029;52.956;4.772;2023-12-04T12:36:37;100559.53;;;8.82;100.00
55490;BME280;44029;52.956;4.772;2023-12-04T12:39:03;100549.59;;;8.76;100.00
55490;BME280;44029;52.956;4.772;2023-12-04T12:41:30;100546.94;;;8.64;100.00
55490;BME280;44029;52.956;4.772;2023-12-04T12:43:55;100553.53;;;8.51;100.00
55490;BME280;44029;52.956;4.772;2023-12-04T12:46:21;100552.66;;;8.51;100.00